Terminal Aerodrome Forecast
Issued by NWS

Home | Current Version | Previous Version | Text Only | Print | Product List | Glossary On
Versions: 1 2 3 4 5 6 7 8 9 10 11 12 13 14 15 16 17 18 19
738
FTUS43 KLSX 252347
TAFCPS
TAF
KCPS 252347Z 2600/2624 22014G22KT 6SM -SHRA VCTS OVC025CB
      TEMPO 2600/2602 3SM SHRA OVC015
     FM260200 17006KT P6SM VCSH BKN030
     FM261100 21006KT P6SM OVC015
     FM261600 24007KT P6SM OVC015
     FM262100 25007KT P6SM BKN035=

USA.gov is the U.S. government's official web portal to all federal, state and local government web resources and services.